Terminal Aerodrome Forecast
Issued by NWS Oklahoma City, OK

Home | Current Version | Previous Version | Text Only | Print | Product List | Glossary On
Versions: 1 2 3 4 5 6 7 8 9 10 11 12
000
FTUS44 KOUN 210520
TAFOUN
TAF
KOUN 210520Z 2106/2206 17017G27KT P6SM SCT035 BKN050
     FM210900 16015G24KT P6SM OVC015
     FM211400 18016G26KT P6SM BKN025
     FM220000 18017G25KT P6SM TSRA BKN025CB OVC090
     FM220300 35016G24KT P6SM BKN070=

USA.gov is the U.S. government's official web portal to all federal, state and local government web resources and services.